Time;durP1;ratioP1;P1;durP2;ratioP2;P2;SDS_P1;SDS_P2;PMS_P1;PMS_P2;Temp;Humidity;BMP_temperature;BMP_pressure;BME280_temperature;BME280_humidity;BME280_pressure;Samples;Min_cycle;Max_cycle;Signal;HPM_P1;HPM_P2
2021/09/22 00:02:22;;;;;;;1.83;1.17;;;;;;;9.05;66.71;100135.24;1722275;82;21126;-60
2021/09/22 00:04:51;;;;;;;;;;;;;;;9.08;66.68;100130.80;1719135;83;21179;-60
2021/09/22 00:07:18;;;;;;;1.30;1.05;;;;;;;9.05;66.65;100126.69;1717094;83;20085;-61
2021/09/22 00:09:45;;;;;;;0.82;0.80;;;;;;;9.04;66.73;100125.57;1716473;82;21085;-59
2021/09/22 00:12:12;;;;;;;1.35;1.02;;;;;;;9.04;66.64;100122.90;1722062;82;20983;-59
2021/09/22 00:14:39;;;;;;;1.35;0.80;;;;;;;9.08;66.68;100120.95;1727759;82;21095;-60
2021/09/22 00:17:06;;;;;;;1.12;0.90;;;;;;;9.11;66.58;100122.34;1725971;82;21544;-60
2021/09/22 00:19:34;;;;;;;1.10;0.93;;;;;;;9.09;66.53;100121.22;1725057;82;21022;-60
2021/09/22 00:22:01;;;;;;;0.70;0.60;;;;;;;9.10;66.61;100118.86;1728719;82;21469;-61
2021/09/22 00:24:28;;;;;;;1.87;1.00;;;;;;;9.07;66.64;100115.81;1726442;82;20963;-60
2021/09/22 00:26:56;;;;;;;1.27;0.90;;;;;;;9.06;66.70;100122.19;1724816;82;21145;-60
2021/09/22 00:29:26;;;;;;;;;;;;;;;9.06;66.61;100116.84;1727768;82;21025;-60
2021/09/22 00:31:52;;;;;;;1.47;0.88;;;;;;;9.04;66.58;100116.21;1717894;82;20097;-59
2021/09/22 00:34:20;;;;;;;0.98;0.60;;;;;;;9.02;66.68;100112.94;1716755;83;20951;-60
2021/09/22 00:36:48;;;;;;;0.80;0.80;;;;;;;9.00;66.64;100114.50;1726545;82;20970;-60
2021/09/22 00:39:16;;;;;;;;;;;;;;;8.95;66.76;100114.30;1723182;82;21158;-60
2021/09/22 00:41:43;;;;;;;3.42;0.78;;;;;;;8.97;66.85;100111.44;1690178;83;20077;-59
2021/09/22 00:44:11;;;;;;;2.40;1.00;;;;;;;8.96;66.85;100113.28;1709124;83;21434;-59
2021/09/22 00:46:39;;;;;;;1.00;0.70;;;;;;;8.93;66.89;100113.70;1725094;82;20908;-59
2021/09/22 00:49:08;;;;;;;;;;;;;;;8.93;66.90;100107.02;1730265;82;20982;-60
2021/09/22 00:51:36;;;;;;;0.75;0.72;;;;;;;8.92;66.98;100111.56;1727171;82;21121;-59
2021/09/22 00:54:05;;;;;;;1.10;0.98;;;;;;;8.94;67.05;100110.82;1727216;82;20947;-60
2021/09/22 00:56:33;;;;;;;1.20;1.00;;;;;;;8.96;67.02;100107.12;1729522;82;21073;-59
2021/09/22 00:59:01;;;;;;;1.90;1.02;;;;;;;8.97;67.07;100105.57;1709312;82;21497;-60
2021/09/22 01:01:30;;;;;;;1.20;1.03;;;;;;;8.98;67.03;100101.03;1726323;82;20950;-60
2021/09/22 01:04:00;;;;;;;1.87;0.90;;;;;;;8.95;67.13;100104.94;1729488;82;21662;-60
2021/09/22 01:06:25;;;;;;;1.52;1.05;;;;;;;8.98;67.23;100105.05;1723262;82;21529;-60
2021/09/22 01:08:57;;;;;;;1.98;0.95;;;;;;;9.03;67.17;100095.88;1732776;82;21022;-59
2021/09/22 01:11:28;;;;;;;1.10;1.00;;;;;;;9.05;67.10;100101.81;1714109;82;20852;-60
2021/09/22 01:13:55;;;;;;;1.22;1.00;;;;;;;9.07;67.06;100099.23;1710585;83;21023;-59
2021/09/22 01:16:23;;;;;;;1.82;1.15;;;;;;;9.09;66.88;100097.69;1721225;82;21104;-59
2021/09/22 01:18:51;;;;;;;1.37;0.75;;;;;;;9.10;66.76;100096.13;1721459;82;20916;-59
2021/09/22 01:21:20;;;;;;;1.92;0.90;;;;;;;9.09;66.78;100094.48;1716690;83;21022;-59
2021/09/22 01:23:51;;;;;;;2.00;1.22;;;;;;;9.07;66.84;100092.55;1726191;82;20943;-61
2021/09/22 01:26:21;;;;;;;1.00;0.70;;;;;;;9.06;66.94;100092.77;1720057;82;20983;-60
2021/09/22 01:28:48;;;;;;;1.30;0.68;;;;;;;9.04;67.03;100094.82;1721718;82;21164;-59
2021/09/22 01:31:17;;;;;;;2.55;0.80;;;;;;;9.05;67.13;100091.93;1719015;82;20986;-59
2021/09/22 01:33:44;;;;;;;0.85;0.80;;;;;;;9.09;66.99;100087.80;1722342;82;21508;-59
2021/09/22 01:36:13;;;;;;;;;;;;;;;9.10;67.02;100088.64;1714689;83;21003;-59
2021/09/22 01:38:40;;;;;;;0.98;0.80;;;;;;;9.09;67.01;100091.00;1696366;83;20141;-60
2021/09/22 01:41:13;;;;;;;1.35;0.70;;;;;;;9.07;67.11;100089.88;1725875;82;20884;-60
2021/09/22 01:43:43;;;;;;;1.05;0.93;;;;;;;9.07;67.23;100085.87;1720162;82;20986;-59
2021/09/22 01:46:13;;;;;;;1.10;1.00;;;;;;;9.07;67.30;100087.73;1735793;82;20923;-59
2021/09/22 01:48:41;;;;;;;;;;;;;;;9.04;67.28;100084.97;1726766;82;21625;-59
2021/09/22 01:51:09;;;;;;;0.70;0.70;;;;;;;9.00;67.35;100082.41;1723143;82;20104;-59
2021/09/22 01:53:39;;;;;;;1.20;0.93;;;;;;;8.93;67.54;100086.45;1729141;82;20900;-60
2021/09/22 01:56:09;;;;;;;4.28;1.55;;;;;;;8.92;67.66;100081.31;1719424;82;20931;-59
2021/09/22 01:58:36;;;;;;;1.47;1.10;;;;;;;8.97;67.63;100081.50;1680662;83;21098;-59
2021/09/22 02:01:09;;;;;;;;;;;;;;;9.02;67.61;100080.33;1713715;83;21053;-59
2021/09/22 02:03:49;;;;;;;1.60;1.00;;;;;;;9.06;67.59;100079.41;1673899;85;20162;-59
2021/09/22 02:06:18;;;;;;;1.15;1.05;;;;;;;9.09;67.52;100078.97;1665053;85;21159;-56
2021/09/22 02:08:46;;;;;;;2.15;1.22;;;;;;;9.13;67.44;100081.52;1666683;85;20919;-56
2021/09/22 02:11:15;;;;;;;2.92;1.27;;;;;;;9.16;67.24;100074.40;1649933;85;21030;-56
2021/09/22 02:13:42;;;;;;;1.52;1.10;;;;;;;9.16;67.06;100079.75;1678187;85;21599;-55
2021/09/22 02:16:13;;;;;;;2.17;0.93;;;;;;;9.16;67.00;100078.91;1655958;85;21509;-57
2021/09/22 02:18:44;;;;;;;1.17;1.07;;;;;;;9.19;66.96;100074.49;1662302;85;22982;-57
2021/09/22 02:21:13;;;;;;;1.20;1.10;;;;;;;9.19;66.87;100078.50;1661571;85;21591;-55
2021/09/22 02:23:43;;;;;;;1.32;1.07;;;;;;;9.17;66.90;100089.92;1674913;85;20907;-56
2021/09/22 02:26:12;;;;;;;2.22;1.20;;;;;;;9.15;66.87;100092.81;1671374;85;21029;-53
2021/09/22 02:28:41;;;;;;;2.20;1.20;;;;;;;9.12;66.90;100086.03;1677690;85;20930;-54
2021/09/22 02:31:09;;;;;;;1.20;1.10;;;;;;;9.10;66.91;100086.77;1672542;84;21905;-56
2021/09/22 02:33:44;;;;;;;1.82;1.20;;;;;;;9.07;66.82;100083.20;1662461;85;21596;-54
2021/09/22 02:36:11;;;;;;;1.70;1.60;;;;;;;9.03;66.95;100079.30;1674043;85;21003;-52
2021/09/22 02:38:43;;;;;;;1.17;1.07;;;;;;;9.05;66.95;100081.77;1670964;83;21616;-52
2021/09/22 02:41:10;;;;;;;2.65;1.50;;;;;;;9.06;66.83;100080.20;1716018;83;21012;-52
2021/09/22 02:43:38;;;;;;;1.60;1.40;;;;;;;9.08;66.66;100080.83;1716314;83;21207;-52
2021/09/22 02:46:05;;;;;;;3.37;1.47;;;;;;;9.03;66.47;100077.97;1721104;82;21082;-53
2021/09/22 02:48:38;;;;;;;1.50;1.40;;;;;;;8.98;66.47;100080.48;1721609;82;20982;-54
2021/09/22 02:51:07;;;;;;;;;;;;;;;8.97;66.49;100075.34;1730256;82;20947;-52
2021/09/22 02:53:35;;;;;;;1.60;1.12;;;;;;;8.96;66.56;100077.19;1717207;83;20152;-52
2021/09/22 02:56:02;;;;;;;1.60;1.50;;;;;;;8.98;66.57;100079.14;1728141;82;21108;-53
2021/09/22 02:58:29;;;;;;;2.27;1.50;;;;;;;9.00;66.51;100081.60;1721079;82;20982;-53
2021/09/22 03:00:59;;;;;;;1.42;1.30;;;;;;;9.03;66.50;100078.49;1713075;83;21493;-53
2021/09/22 03:03:27;;;;;;;2.22;1.30;;;;;;;9.02;66.51;100082.20;1724639;82;21058;-54
2021/09/22 03:05:56;;;;;;;3.00;1.30;;;;;;;9.03;66.59;100085.98;1711428;83;21465;-54
2021/09/22 03:08:23;;;;;;;2.75;1.35;;;;;;;9.07;66.61;100081.05;1730394;82;21767;-52
2021/09/22 03:10:51;;;;;;;1.30;1.20;;;;;;;9.08;66.35;100082.67;1722782;82;20935;-53
2021/09/22 03:13:19;;;;;;;2.40;1.40;;;;;;;9.05;66.29;100084.44;1716449;83;21006;-52
2021/09/22 03:15:48;;;;;;;3.12;1.35;;;;;;;9.03;66.41;100080.64;1717167;83;21005;-54
2021/09/22 03:18:15;;;;;;;2.15;1.10;;;;;;;9.05;66.54;100082.57;1730210;82;21018;-54
2021/09/22 03:20:45;;;;;;;5.03;1.22;;;;;;;9.08;66.43;100079.99;1730865;82;21018;-53
2021/09/22 03:23:13;;;;;;;3.52;1.57;;;;;;;9.06;66.44;100081.55;1732225;82;20931;-53
2021/09/22 03:25:43;;;;;;;2.05;1.70;;;;;;;9.04;66.38;100082.78;1733252;82;21140;-54
2021/09/22 03:28:11;;;;;;;;;;;;;;;9.03;66.33;100081.98;1739432;82;20903;-53
2021/09/22 03:30:40;;;;;;;2.05;1.25;;;;;;;9.05;66.43;100079.09;1732239;82;20436;-53
2021/09/22 03:33:11;;;;;;;2.20;1.20;;;;;;;9.07;66.42;100083.20;1724995;82;21820;-55
2021/09/22 03:35:40;;;;;;;1.17;1.07;;;;;;;9.10;66.30;100082.77;1698289;83;20883;-54
2021/09/22 03:38:07;;;;;;;1.95;1.52;;;;;;;9.12;66.17;100075.33;1703429;83;20970;-54
2021/09/22 03:40:35;;;;;;;2.30;1.20;;;;;;;9.10;66.05;100077.94;1696133;83;21022;-57
2021/09/22 03:43:03;;;;;;;6.00;1.30;;;;;;;9.06;66.01;100076.72;1701157;83;21045;-55
2021/09/22 03:45:31;;;;;;;1.20;1.10;;;;;;;9.04;66.02;100080.11;1694753;83;21130;-55
2021/09/22 03:47:59;;;;;;;2.70;1.25;;;;;;;9.02;66.01;100080.86;1698716;83;21441;-60
2021/09/22 03:50:26;;;;;;;1.30;1.20;;;;;;;9.01;66.03;100077.37;1687009;83;20991;-56
2021/09/22 03:53:05;;;;;;;2.40;1.30;;;;;;;9.01;65.98;100072.52;1698723;83;20978;-56
2021/09/22 03:55:32;;;;;;;1.75;1.20;;;;;;;9.00;65.99;100073.58;1695666;83;21050;-57
2021/09/22 03:58:00;;;;;;;1.97;1.50;;;;;;;9.01;66.03;100074.70;1702800;83;21124;-57
2021/09/22 04:00:27;;;;;;;2.40;1.25;;;;;;;9.05;66.09;100070.54;1697617;83;20979;-57
2021/09/22 04:02:55;;;;;;;2.77;1.47;;;;;;;9.09;66.08;100074.42;1691323;83;21026;-57
2021/09/22 04:05:23;;;;;;;3.50;1.75;;;;;;;9.16;66.00;100070.89;1697313;83;20943;-57
2021/09/22 04:07:50;;;;;;;4.37;1.32;;;;;;;9.20;65.76;100063.58;1693557;83;20886;-58
2021/09/22 04:10:18;;;;;;;2.70;1.50;;;;;;;9.20;65.67;100064.91;1697501;83;21172;-56
2021/09/22 04:12:45;;;;;;;2.05;1.65;;;;;;;9.19;65.49;100059.78;1696422;83;20978;-58
2021/09/22 04:15:13;;;;;;;1.62;1.50;;;;;;;9.15;65.42;100061.24;1688866;83;20895;-59
2021/09/22 04:17:43;;;;;;;2.15;1.65;;;;;;;9.09;65.44;100060.25;1692491;83;20939;-60
2021/09/22 04:20:11;;;;;;;2.20;1.40;;;;;;;9.06;65.61;100056.14;1698892;83;20860;-58
2021/09/22 04:22:39;;;;;;;2.77;1.60;;;;;;;9.05;65.61;100057.17;1698982;83;21783;-59
2021/09/22 04:25:14;;;;;;;3.33;1.42;;;;;;;9.01;65.51;100060.49;1696717;83;20930;-56
2021/09/22 04:27:40;;;;;;;2.05;1.60;;;;;;;8.94;65.56;100062.70;1697235;83;21556;-56
2021/09/22 04:30:10;;;;;;;5.28;1.55;;;;;;;8.90;65.68;100062.00;1690594;82;21046;-56
2021/09/22 04:32:57;;;;;;;3.35;1.47;;;;;;;8.89;65.87;100060.36;1695019;83;21001;-57
2021/09/22 04:35:43;;;;;;;2.98;1.50;;;;;;;8.86;66.05;100063.46;1727325;82;21175;-55
2021/09/22 04:38:28;;;;;;;1.95;1.70;;;;;;;8.85;66.14;100068.00;1723543;82;21047;-57
2021/09/22 04:41:14;;;;;;;4.50;1.72;;;;;;;8.87;66.24;100065.92;1725224;82;21499;-57
2021/09/22 04:43:59;;;;;;;1.52;1.40;;;;;;;8.87;66.19;100057.90;1733099;82;20983;-56
2021/09/22 04:46:31;;;;;;;3.10;1.20;;;;;;;8.87;66.09;100063.77;1725239;82;21042;-56
2021/09/22 04:49:17;;;;;;;2.42;1.40;;;;;;;8.87;66.11;100066.45;1728648;82;21165;-57
2021/09/22 04:52:04;;;;;;;2.30;1.20;;;;;;;8.89;66.02;100061.70;1731082;82;21482;-56
2021/09/22 04:54:50;;;;;;;3.05;1.32;;;;;;;8.90;65.90;100053.98;1734090;82;20999;-58
2021/09/22 04:57:36;;;;;;;1.72;1.35;;;;;;;8.88;65.91;100067.56;1727751;82;21011;-56
2021/09/22 05:00:23;;;;;;;5.87;1.40;;;;;;;8.87;66.05;100065.92;1726765;82;21552;-57
2021/09/22 05:03:03;;;;;;;2.50;1.70;;;;;;;8.89;65.92;100064.37;1692644;84;21122;-57
2021/09/22 05:05:49;;;;;;;2.12;1.35;;;;;;;8.90;66.02;100066.02;1706021;82;21402;-58
2021/09/22 05:08:34;;;;;;;3.20;1.60;;;;;;;8.96;65.91;100061.67;1731680;82;21078;-61
2021/09/22 05:11:21;;;;;;;1.20;1.10;;;;;;;8.97;65.75;100067.33;1735849;82;21088;-56
2021/09/22 05:14:08;;;;;;;1.40;1.22;;;;;;;9.00;65.47;100065.56;1725095;82;21035;-57
2021/09/22 05:16:56;;;;;;;1.72;1.35;;;;;;;8.94;65.55;100069.91;1735265;82;21018;-57
2021/09/22 05:19:42;;;;;;;1.95;1.30;;;;;;;8.96;65.46;100069.16;1727522;82;20892;-59
2021/09/22 05:22:29;;;;;;;1.70;1.40;;;;;;;9.02;65.24;100065.62;1722300;82;21006;-57
2021/09/22 05:25:15;;;;;;;1.32;1.22;;;;;;;9.09;65.20;100058.91;1721193;82;20982;-57
2021/09/22 05:28:00;;;;;;;1.65;1.37;;;;;;;9.21;64.95;100064.39;1728680;82;21540;-58
2021/09/22 05:30:45;;;;;;;2.35;1.60;;;;;;;9.27;64.69;100062.17;1724703;82;21811;-57
2021/09/22 05:33:32;;;;;;;1.40;1.30;;;;;;;9.33;64.56;100063.17;1729868;82;21442;-57
2021/09/22 05:36:18;;;;;;;7.15;2.35;;;;;;;9.41;64.31;100066.92;1724446;82;20999;-56
2021/09/22 05:39:04;;;;;;;4.28;1.65;;;;;;;9.45;63.98;100057.41;1733571;82;21018;-57
2021/09/22 05:41:35;;;;;;;3.58;1.37;;;;;;;9.50;63.83;100063.47;1725778;82;21007;-58
2021/09/22 05:44:22;;;;;;;3.15;1.07;;;;;;;9.54;63.62;100064.14;1728690;82;20983;-57
2021/09/22 05:47:08;;;;;;;3.17;1.40;;;;;;;9.51;63.63;100071.77;1728952;82;21017;-56
2021/09/22 05:49:54;;;;;;;2.85;1.62;;;;;;;9.51;63.59;100067.26;1722700;82;20907;-57
2021/09/22 05:52:39;;;;;;;2.17;1.25;;;;;;;9.49;63.57;100067.98;1725899;82;21065;-57
2021/09/22 05:55:25;;;;;;;2.37;1.70;;;;;;;9.46;63.63;100061.20;1730110;82;21026;-58
2021/09/22 05:58:15;;;;;;;2.50;1.50;;;;;;;9.51;63.71;100066.42;1721747;82;21157;-58
2021/09/22 06:00:59;;;;;;;2.80;1.35;;;;;;;9.50;63.62;100068.81;1733301;82;20987;-56
2021/09/22 06:03:45;;;;;;;1.65;1.20;;;;;;;9.50;63.49;100071.49;1728787;82;21030;-57
2021/09/22 06:06:14;;;;;;;1.55;1.25;;;;;;;9.49;63.45;100065.83;1738395;82;21025;-56
2021/09/22 06:09:00;;;;;;;2.55;1.30;;;;;;;9.46;63.59;100066.55;1727403;82;21065;-57
2021/09/22 06:11:31;;;;;;;1.87;1.50;;;;;;;9.50;63.41;100064.27;1725458;82;21002;-57
2021/09/22 06:14:04;;;;;;;2.20;1.62;;;;;;;9.51;63.46;100068.59;1732063;82;21081;-56
2021/09/22 06:16:32;;;;;;;1.98;1.37;;;;;;;9.53;63.29;100066.52;1718790;82;21450;-56
2021/09/22 06:19:05;;;;;;;1.77;1.40;;;;;;;9.50;63.01;100066.95;1722406;82;21150;-57
2021/09/22 06:21:33;;;;;;;2.80;1.20;;;;;;;9.44;63.04;100064.63;1718044;81;21053;-57
2021/09/22 06:24:02;;;;;;;4.83;1.55;;;;;;;9.43;63.21;100068.86;1725773;82;21006;-57
2021/09/22 06:26:32;;;;;;;1.65;1.02;;;;;;;9.47;63.32;100071.41;1719525;82;20927;-57
2021/09/22 06:29:01;;;;;;;1.90;1.32;;;;;;;9.49;63.25;100067.17;1725705;82;20899;-58
2021/09/22 06:31:30;;;;;;;1.47;1.37;;;;;;;9.47;63.32;100071.41;1727048;82;21426;-57
2021/09/22 06:33:58;;;;;;;2.52;1.67;;;;;;;9.50;63.11;100069.62;1727738;82;20879;-56
2021/09/22 06:36:25;;;;;;;2.55;1.72;;;;;;;9.50;62.75;100073.64;1724475;82;21895;-56
2021/09/22 06:38:54;;;;;;;3.30;1.47;;;;;;;9.46;63.03;100072.43;1721176;82;20941;-57
2021/09/22 06:41:23;;;;;;;1.57;1.27;;;;;;;9.46;62.98;100077.78;1720017;83;21059;-56
2021/09/22 06:43:51;;;;;;;2.35;1.57;;;;;;;9.48;62.82;100081.05;1721861;82;21514;-56
2021/09/22 06:46:20;;;;;;;2.08;1.52;;;;;;;9.50;62.70;100076.31;1723469;82;20990;-56
2021/09/22 06:48:48;;;;;;;3.50;1.62;;;;;;;9.51;62.36;100076.62;1724778;82;21201;-56
2021/09/22 06:51:17;;;;;;;2.08;1.10;;;;;;;9.52;62.49;100079.58;1725478;82;21501;-57
2021/09/22 06:53:45;;;;;;;2.20;1.12;;;;;;;9.55;62.40;100079.14;1729288;82;21554;-58
2021/09/22 06:56:13;;;;;;;1.37;1.27;;;;;;;9.59;62.10;100080.87;1717601;82;20959;-58
2021/09/22 06:58:40;;;;;;;1.82;1.17;;;;;;;9.57;62.15;100079.76;1716410;83;22117;-56
2021/09/22 07:01:08;;;;;;;2.20;1.25;;;;;;;9.61;62.02;100085.48;1723207;82;21248;-57
2021/09/22 07:03:36;;;;;;;2.05;1.27;;;;;;;9.67;61.96;100086.47;1718793;82;20990;-59
2021/09/22 07:06:04;;;;;;;1.20;1.10;;;;;;;9.70;61.93;100082.85;1725113;82;20963;-57
2021/09/22 07:08:32;;;;;;;1.92;1.25;;;;;;;9.77;61.65;100079.57;1730069;82;21485;-56
2021/09/22 07:10:59;;;;;;;2.37;1.50;;;;;;;9.81;61.20;100079.97;1722478;82;21449;-57
2021/09/22 07:13:27;;;;;;;1.65;1.35;;;;;;;9.78;61.25;100080.41;1721506;82;21168;-59
2021/09/22 07:15:54;;;;;;;2.05;1.62;;;;;;;9.78;61.39;100081.75;1716963;82;21039;-57
2021/09/22 07:18:22;;;;;;;2.77;1.98;;;;;;;9.84;61.38;100080.86;1722597;82;21492;-56
2021/09/22 07:20:49;;;;;;;1.77;1.42;;;;;;;9.90;61.17;100077.83;1724549;82;21529;-57
2021/09/22 07:23:17;;;;;;;;;;;;;;;9.94;61.04;100083.05;1723542;82;20962;-57
2021/09/22 07:25:45;;;;;;;2.98;1.60;;;;;;;10.00;61.03;100078.14;1726521;82;21743;-58
2021/09/22 07:28:12;;;;;;;2.12;1.87;;;;;;;10.06;60.81;100075.91;1720775;82;21587;-61
2021/09/22 07:30:41;;;;;;;5.47;2.40;;;;;;;10.08;60.84;100072.48;1723442;82;21421;-57
2021/09/22 07:33:09;;;;;;;5.97;4.50;;;;;;;10.11;60.90;100077.39;1718057;82;21042;-57
2021/09/22 07:35:37;;;;;;;8.48;5.12;;;;;;;10.14;60.79;100075.64;1696731;82;21029;-58
2021/09/22 07:38:04;;;;;;;7.67;5.90;;;;;;;10.14;60.72;100071.62;1688903;83;21160;-57
2021/09/22 07:40:31;;;;;;;9.80;6.78;;;;;;;10.17;60.77;100077.03;1686563;83;21007;-59
2021/09/22 07:42:59;;;;;;;10.95;5.37;;;;;;;10.15;60.70;100077.25;1689956;83;20978;-56
2021/09/22 07:45:26;;;;;;;8.65;4.85;;;;;;;10.18;60.78;100082.69;1683258;83;21034;-57
2021/09/22 07:47:53;;;;;;;5.83;5.00;;;;;;;10.21;60.92;100086.80;1682622;83;20883;-57
2021/09/22 07:50:22;;;;;;;6.28;5.10;;;;;;;10.18;60.87;100086.71;1689579;83;20938;-57
2021/09/22 07:52:50;;;;;;;5.58;4.92;;;;;;;10.08;60.94;100092.56;1680332;85;20903;-55
2021/09/22 07:55:18;;;;;;;5.72;4.92;;;;;;;10.00;61.13;100083.50;1685470;83;21513;-57
2021/09/22 07:57:47;;;;;;;6.87;5.85;;;;;;;9.98;61.36;100089.58;1686325;83;21527;-57
2021/09/22 08:00:16;;;;;;;5.03;4.45;;;;;;;10.02;61.48;100092.13;1681801;85;21045;-58
2021/09/22 08:02:43;;;;;;;6.17;4.72;;;;;;;10.07;61.60;100088.27;1682004;85;21130;-58
2021/09/22 08:05:11;;;;;;;9.38;4.60;;;;;;;10.07;61.25;100092.79;1677516;83;20978;-57
2021/09/22 08:07:39;;;;;;;5.67;4.40;;;;;;;10.01;61.46;100089.13;1682149;85;21449;-57
2021/09/22 08:10:09;;;;;;;5.97;4.55;;;;;;;10.06;61.33;100089.30;1681497;84;20923;-57
2021/09/22 08:12:36;;;;;;;7.17;4.22;;;;;;;10.13;61.10;100093.27;1682223;85;21050;-57
2021/09/22 08:15:05;;;;;;;7.20;4.42;;;;;;;10.18;60.86;100090.73;1685079;83;21053;-56
2021/09/22 08:17:32;;;;;;;5.20;4.20;;;;;;;10.17;60.65;100088.58;1682029;85;20951;-56
2021/09/22 08:20:00;;;;;;;5.60;4.47;;;;;;;10.17;60.65;100084.56;1675921;85;20943;-58
2021/09/22 08:22:28;;;;;;;;;;;;;;;10.21;60.65;100086.27;1683936;85;20981;-58
2021/09/22 08:24:57;;;;;;;5.67;4.50;;;;;;;10.22;60.40;100084.39;1684335;83;20166;-57
2021/09/22 08:27:25;;;;;;;6.55;4.33;;;;;;;10.20;60.62;100085.15;1681816;85;21082;-57
2021/09/22 08:29:52;;;;;;;5.83;4.72;;;;;;;10.24;60.71;100083.67;1691617;83;20915;-58
2021/09/22 08:32:19;;;;;;;5.33;4.30;;;;;;;10.29;60.30;100085.98;1694468;83;20950;-57
2021/09/22 08:34:46;;;;;;;4.25;3.52;;;;;;;10.30;60.38;100084.92;1698748;83;20934;-56
2021/09/22 08:37:15;;;;;;;6.05;4.65;;;;;;;10.29;60.28;100087.83;1692320;83;20966;-56
2021/09/22 08:39:43;;;;;;;6.58;5.10;;;;;;;10.21;60.36;100092.95;1687589;83;21103;-57
2021/09/22 08:42:10;;;;;;;10.05;5.47;;;;;;;10.09;60.42;100088.05;1695567;83;21005;-58
2021/09/22 08:44:39;;;;;;;5.97;4.95;;;;;;;9.91;60.88;100080.28;1701786;83;20983;-57
2021/09/22 08:47:07;;;;;;;6.58;4.65;;;;;;;9.86;61.17;100086.00;1695292;83;20978;-58
2021/09/22 08:49:36;;;;;;;7.15;4.75;;;;;;;9.87;61.29;100090.32;1698156;83;21048;-57
2021/09/22 08:52:04;;;;;;;5.22;4.65;;;;;;;9.93;61.23;100083.55;1696144;84;21151;-57
2021/09/22 08:54:31;;;;;;;7.45;4.72;;;;;;;9.98;60.94;100083.72;1695993;84;20994;-57
2021/09/22 08:57:03;;;;;;;6.03;4.53;;;;;;;10.06;60.81;100077.25;1692761;84;21473;-57
2021/09/22 08:59:30;;;;;;;4.37;3.75;;;;;;;10.14;60.86;100075.64;1697818;84;20954;-58
2021/09/22 09:02:15;;;;;;;7.35;3.77;;;;;;;10.24;60.51;100071.08;1694308;84;20989;-57
2021/09/22 09:04:44;;;;;;;5.83;3.95;;;;;;;10.33;60.05;100068.92;1700396;83;21154;-58
2021/09/22 09:07:11;;;;;;;;;;;;;;;10.42;59.88;100060.91;1696131;83;21002;-56
2021/09/22 09:09:44;;;;;;;6.65;4.00;;;;;;;10.56;59.69;100062.11;1697469;83;20090;-57
2021/09/22 09:12:22;;;;;;;4.42;4.00;;;;;;;10.68;59.58;100060.30;1686148;83;21497;-56
2021/09/22 09:15:01;;;;;;;6.22;4.15;;;;;;;10.78;59.00;100064.59;1685465;84;20877;-58
2021/09/22 09:17:46;;;;;;;4.85;4.35;;;;;;;10.87;58.53;100065.09;1695155;84;21473;-58
2021/09/22 09:20:23;;;;;;;5.08;4.58;;;;;;;10.92;58.00;100061.73;1695759;84;20978;-57
2021/09/22 09:23:06;;;;;;;7.37;4.80;;;;;;;10.90;57.95;100064.64;1691161;83;21078;-57
2021/09/22 09:25:46;;;;;;;7.67;4.85;;;;;;;10.92;57.87;100069.77;1697017;84;20975;-57
2021/09/22 09:28:24;;;;;;;6.00;5.20;;;;;;;10.96;57.81;100065.06;1662872;85;20875;-57
2021/09/22 09:31:05;;;;;;;4.45;4.05;;;;;;;11.03;57.76;100069.01;1691071;84;21822;-57
2021/09/22 09:33:48;;;;;;;7.78;4.80;;;;;;;11.09;57.35;100072.65;1691846;84;20927;-58
2021/09/22 09:36:42;;;;;;;7.22;4.97;;;;;;;11.14;57.22;100069.55;1722778;82;21561;-58
2021/09/22 09:39:20;;;;;;;5.65;4.65;;;;;;;11.21;57.06;100068.92;1728300;82;20943;-57
2021/09/22 09:41:53;;;;;;;6.42;5.08;;;;;;;11.27;56.39;100071.76;1693608;83;20988;-57
2021/09/22 09:44:26;;;;;;;7.08;5.15;;;;;;;11.31;56.42;100068.91;1728053;81;22620;-58
2021/09/22 09:46:55;;;;;;;7.47;5.62;;;;;;;11.33;56.29;100067.61;1730152;82;20944;-58
2021/09/22 09:49:24;;;;;;;9.75;4.60;;;;;;;11.32;56.33;100067.34;1701134;82;21006;-57
2021/09/22 09:51:56;;;;;;;9.68;5.50;;;;;;;11.30;56.36;100064.59;1724919;82;20975;-57
2021/09/22 09:54:29;;;;;;;5.72;4.40;;;;;;;11.26;56.33;100066.89;1702694;82;21493;-58
2021/09/22 09:56:59;;;;;;;5.50;4.40;;;;;;;11.25;56.42;100059.91;1724896;82;21242;-57
2021/09/22 09:59:26;;;;;;;5.83;4.10;;;;;;;11.18;56.44;100057.31;1700871;83;21501;-58
2021/09/22 10:01:55;;;;;;;4.08;3.67;;;;;;;11.14;56.71;100062.03;1727070;82;21026;-57
2021/09/22 10:04:24;;;;;;;5.37;3.90;;;;;;;11.09;56.81;100061.38;1728751;82;21501;-58
2021/09/22 10:06:52;;;;;;;5.67;3.02;;;;;;;11.05;56.91;100066.91;1729498;82;26948;-57
2021/09/22 10:09:19;;;;;;;6.15;3.47;;;;;;;11.03;56.94;100064.98;1729811;82;21141;-57
2021/09/22 10:11:48;;;;;;;;;;;;;;;11.01;57.00;100063.87;1723790;82;20950;-58
2021/09/22 10:14:17;;;;;;;3.02;2.67;;;;;;;11.00;57.25;100063.57;1725865;81;20138;-58
2021/09/22 10:16:48;;;;;;;4.60;3.40;;;;;;;11.02;57.41;100060.66;1724085;82;20984;-58
2021/09/22 10:19:15;;;;;;;2.58;2.33;;;;;;;11.07;57.84;100059.97;1719447;83;21044;-59
2021/09/22 10:21:43;;;;;;;2.80;2.60;;;;;;;11.16;57.23;100055.91;1726280;82;21152;-56
2021/09/22 10:24:11;;;;;;;2.98;2.67;;;;;;;11.21;56.76;100056.05;1735516;82;20962;-57
2021/09/22 10:26:39;;;;;;;2.60;2.30;;;;;;;11.26;56.27;100054.02;1724044;82;20990;-57
2021/09/22 10:29:23;;;;;;;3.15;2.47;;;;;;;11.36;56.21;100045.68;1725845;82;20900;-58
2021/09/22 10:31:52;;;;;;;4.83;2.15;;;;;;;11.47;56.14;100048.11;1709770;83;21439;-58
2021/09/22 10:34:36;;;;;;;2.60;2.40;;;;;;;11.49;55.94;100045.19;1717110;82;21130;-56
2021/09/22 10:37:07;;;;;;;2.05;1.80;;;;;;;11.43;55.45;100052.30;1716758;82;20907;-57
2021/09/22 10:39:40;;;;;;;3.12;2.00;;;;;;;11.24;55.70;100050.75;1720346;82;21025;-58
2021/09/22 10:42:29;;;;;;;3.25;2.40;;;;;;;11.08;56.09;100058.39;1720441;82;21058;-58
2021/09/22 10:45:17;;;;;;;3.08;2.20;;;;;;;11.00;56.56;100059.55;1721383;81;20974;-58
2021/09/22 10:47:45;;;;;;;2.60;2.10;;;;;;;10.92;56.89;100066.56;1718176;82;21991;-58
2021/09/22 10:50:34;;;;;;;2.53;2.30;;;;;;;10.84;57.26;100060.19;1672241;83;21505;-57
2021/09/22 10:53:04;;;;;;;3.58;1.92;;;;;;;10.78;57.64;100062.45;1701204;82;21566;-57
2021/09/22 10:55:32;;;;;;;3.40;2.02;;;;;;;10.71;57.48;100050.98;1701641;82;20983;-57
2021/09/22 10:58:11;;;;;;;2.95;2.00;;;;;;;10.66;57.71;100057.03;1717463;82;20887;-57
2021/09/22 11:00:40;;;;;;;2.83;1.90;;;;;;;10.64;57.76;100060.45;1696930;83;20888;-57
2021/09/22 11:03:13;;;;;;;2.92;2.25;;;;;;;10.64;57.94;100058.57;1723235;82;21481;-55
2021/09/22 11:05:43;;;;;;;3.27;2.08;;;;;;;10.66;58.13;100061.86;1719409;81;21058;-57
2021/09/22 11:08:08;;;;;;;;;;;;;;;10.67;58.08;100060.83;1724491;82;21050;-57
2021/09/22 11:10:53;;;;;;;2.52;2.15;;;;;;;10.66;57.98;100056.50;1716983;82;20128;-57
2021/09/22 11:13:27;;;;;;;3.00;2.17;;;;;;;10.61;58.11;100053.66;1717278;83;21505;-58
2021/09/22 11:16:09;;;;;;;2.90;2.42;;;;;;;10.60;58.02;100050.70;1722872;82;21525;-58
2021/09/22 11:18:46;;;;;;;3.58;2.40;;;;;;;10.59;57.84;100050.41;1715413;82;21582;-58
2021/09/22 11:21:20;;;;;;;3.17;2.08;;;;;;;10.59;57.87;100054.95;1720465;82;21053;-59
2021/09/22 11:23:49;;;;;;;2.80;2.40;;;;;;;10.61;57.89;100054.20;1729704;82;21537;-57
2021/09/22 11:26:16;;;;;;;3.12;2.35;;;;;;;10.61;57.92;100048.30;1716999;83;21187;-57
2021/09/22 11:28:49;;;;;;;4.00;2.40;;;;;;;10.66;57.82;100048.99;1725991;82;21470;-56
2021/09/22 11:31:18;;;;;;;6.17;2.40;;;;;;;10.73;57.80;100046.20;1716696;83;21493;-58
2021/09/22 11:33:45;;;;;;;4.47;2.33;;;;;;;10.81;57.57;100046.70;1725243;81;20950;-58
2021/09/22 11:36:13;;;;;;;2.50;1.75;;;;;;;10.92;57.29;100045.11;1719660;82;20970;-57
2021/09/22 11:38:42;;;;;;;2.95;1.70;;;;;;;11.03;56.73;100044.87;1717710;82;21402;-58
2021/09/22 11:41:09;;;;;;;2.30;1.57;;;;;;;11.07;56.41;100034.48;1735655;82;21555;-56
2021/09/22 11:43:37;;;;;;;2.95;1.90;;;;;;;11.07;56.22;100033.14;1737180;82;20930;-57
2021/09/22 11:46:04;;;;;;;1.70;1.37;;;;;;;11.06;56.14;100032.34;1735962;82;21033;-57
2021/09/22 11:48:37;;;;;;;;;;;;;;;11.02;56.11;100033.84;1730746;82;20949;-57
2021/09/22 11:51:07;;;;;;;2.45;1.77;;;;;;;10.97;56.47;100031.84;1723990;82;21192;-57
2021/09/22 11:53:37;;;;;;;1.55;1.42;;;;;;;10.94;56.55;100031.47;1713859;82;21037;-56
2021/09/22 11:56:04;;;;;;;1.85;1.37;;;;;;;10.92;56.82;100031.70;1723890;82;20958;-53